Time;durP1;ratioP1;P1;durP2;ratioP2;P2;SDS_P1;SDS_P2;PMS_P1;PMS_P2;Temp;Humidity;BMP_temperature;BMP_pressure;BME280_temperature;BME280_humidity;BME280_pressure;Samples;Min_cycle;Max_cycle;Signal;HPM_P1;HPM_P2
2021/12/24 00:00:42;;;;;;;33.80;15.17;;;;;;;2.04;100.00;99210.84;7392224;19;20194;-51
2021/12/24 00:03:12;;;;;;;40.20;14.90;;;;;;;2.06;100.00;99209.22;7398471;19;20675;-46
2021/12/24 00:05:42;;;;;;;34.28;13.95;;;;;;;2.04;100.00;99208.28;7391240;19;20527;-47
2021/12/24 00:08:12;;;;;;;45.38;16.30;;;;;;;2.07;100.00;99216.06;7396896;19;20165;-48
2021/12/24 00:10:48;;;;;;;37.10;14.80;;;;;;;2.08;100.00;99205.09;7391157;19;20200;-46
2021/12/24 00:13:19;;;;;;;29.20;14.33;;;;;;;2.17;100.00;99215.75;7398439;19;20500;-46
2021/12/24 00:16:03;;;;;;;32.27;14.83;;;;;;;2.16;100.00;99212.31;7391091;19;20694;-46
2021/12/24 00:18:40;;;;;;;34.92;15.90;;;;;;;2.19;100.00;99210.75;7396501;19;20399;-47
2021/12/24 00:37:27;;;;;;;37.03;14.90;;;;;;;2.33;100.00;99226.69;7403408;19;20150;-50
2021/12/24 00:40:07;;;;;;;31.43;15.50;;;;;;;2.36;100.00;99220.06;7398393;19;20414;-51
2021/12/24 00:42:40;;;;;;;37.53;16.63;;;;;;;2.38;100.00;99227.81;7405228;19;20386;-48
2021/12/24 00:45:10;;;;;;;31.57;14.67;;;;;;;2.37;100.00;99236.25;7398065;19;20414;-48
2021/12/24 00:47:40;;;;;;;33.73;15.40;;;;;;;2.44;100.00;99228.09;7402906;19;20691;-51
2021/12/24 00:50:14;;;;;;;34.17;14.40;;;;;;;2.43;100.00;99228.91;7397548;19;20403;-48
2021/12/24 00:52:53;;;;;;;30.27;15.00;;;;;;;2.47;100.00;99227.38;7404654;19;20418;-52
2021/12/24 00:55:23;;;;;;;28.30;12.90;;;;;;;2.52;100.00;99224.25;7397084;19;20482;-51
2021/12/24 00:57:57;;;;;;;22.83;10.77;;;;;;;2.43;100.00;99219.59;7403030;19;20475;-46
2021/12/24 01:00:35;;;;;;;27.87;13.73;;;;;;;2.55;100.00;99215.91;7397716;19;20414;-52
2021/12/24 01:03:06;;;;;;;22.57;10.90;;;;;;;2.48;100.00;99222.38;7407293;19;20382;-51
2021/12/24 01:05:36;;;;;;;29.30;12.97;;;;;;;2.53;100.00;99212.41;7396596;19;20417;-47
2021/12/24 01:08:07;;;;;;;32.57;13.03;;;;;;;2.55;100.00;99226.09;7402549;19;20844;-48
2021/12/24 01:10:39;;;;;;;23.83;12.47;;;;;;;2.56;100.00;99218.53;7396938;19;20395;-46
2021/12/24 01:13:11;;;;;;;25.55;11.68;;;;;;;2.56;100.00;99222.75;7405611;19;20388;-51
2021/12/24 01:15:52;;;;;;;27.87;12.40;;;;;;;2.64;100.00;99220.56;7396372;19;20656;-53
2021/12/24 01:18:30;;;;;;;32.53;13.20;;;;;;;2.61;100.00;99221.28;7401920;19;20398;-53
2021/12/24 01:21:14;;;;;;;24.77;12.70;;;;;;;2.66;100.00;99219.00;7396600;19;20419;-49
2021/12/24 01:23:48;;;;;;;30.37;13.17;;;;;;;2.65;100.00;99215.56;7403750;19;20455;-48
2021/12/24 01:26:23;;;;;;;22.27;12.73;;;;;;;2.67;100.00;99213.09;7396101;19;20887;-50
2021/12/24 01:29:31;;;;;;;24.57;12.53;;;;;;;2.69;100.00;99207.28;7401003;19;20510;-50
2021/12/24 01:40:21;;;;;;;30.27;14.70;;;;;;;2.79;100.00;99190.78;7396033;19;20415;-48
2021/12/24 01:42:49;;;;;;;27.80;13.80;;;;;;;2.81;100.00;99185.72;7403085;19;20434;-47
2021/12/24 01:45:25;;;;;;;27.30;11.53;;;;;;;2.81;100.00;99186.59;7394539;19;20743;-53
2021/12/24 01:47:57;;;;;;;24.37;10.97;;;;;;;2.87;100.00;99183.47;7401491;19;20420;-49
2021/12/24 01:50:28;;;;;;;32.07;14.57;;;;;;;2.88;100.00;99179.25;7395966;19;20411;-50
2021/12/24 01:52:59;;;;;;;27.50;13.40;;;;;;;2.94;100.00;99179.56;7402742;19;20448;-53
2021/12/24 01:55:29;;;;;;;28.80;13.30;;;;;;;2.94;100.00;99180.44;7394992;19;20486;-54
2021/12/24 01:57:59;;;;;;;31.87;14.73;;;;;;;2.89;100.00;99175.91;7401408;19;20883;-48
2021/12/24 02:00:36;;;;;;;29.13;13.60;;;;;;;2.95;100.00;99186.38;7395276;19;20407;-47
2021/12/24 02:03:06;;;;;;;29.67;14.43;;;;;;;2.94;100.00;99169.34;7402067;19;20629;-49
2021/12/24 02:05:36;;;;;;;26.90;12.40;;;;;;;2.97;100.00;99169.47;7394068;19;20766;-51
2021/12/24 02:08:07;;;;;;;28.30;13.23;;;;;;;2.97;100.00;99164.38;7400170;19;20435;-53
2021/12/24 02:10:36;;;;;;;27.40;13.43;;;;;;;2.94;100.00;99174.47;7394551;19;20415;-48
2021/12/24 02:13:07;;;;;;;31.33;13.90;;;;;;;2.94;100.00;99162.59;7401729;19;20661;-52
2021/12/24 02:15:48;;;;;;;28.07;14.47;;;;;;;2.96;100.00;99152.47;7394391;19;20677;-51
2021/12/24 02:18:40;;;;;;;26.20;13.60;;;;;;;2.91;100.00;99153.91;7400368;19;20869;-50
2021/12/24 02:29:19;;;;;;;25.80;13.90;;;;;;;2.98;100.00;99145.78;7394053;19;20391;-50
2021/12/24 02:31:48;;;;;;;23.40;12.97;;;;;;;2.93;100.00;99140.44;7400814;19;20419;-47
2021/12/24 02:34:21;;;;;;;26.07;12.97;;;;;;;2.94;100.00;99149.88;7394506;19;20390;-50
2021/12/24 02:36:53;;;;;;;26.83;14.07;;;;;;;2.92;100.00;99140.41;7398695;19;20449;-51
2021/12/24 02:39:23;;;;;;;20.27;9.00;;;;;;;2.90;100.00;99141.97;7394655;19;20371;-51
2021/12/24 02:41:52;;;;;;;29.30;14.33;;;;;;;2.91;100.00;99128.44;7400586;19;20687;-50
2021/12/24 02:44:22;;;;;;;27.87;13.43;;;;;;;2.97;100.00;99124.50;7393878;19;20392;-49
2021/12/24 02:47:09;;;;;;;30.17;13.47;;;;;;;3.01;100.00;99130.63;7399395;19;20467;-50
2021/12/24 02:55:13;;;;;;;26.40;13.70;;;;;;;3.03;100.00;99118.81;7392617;19;20414;-50
2021/12/24 02:57:43;;;;;;;27.07;12.97;;;;;;;3.06;100.00;99124.06;7398740;19;20693;-48
2021/12/24 03:00:19;;;;;;;28.20;13.80;;;;;;;3.03;100.00;99123.91;7393862;19;20490;-49
2021/12/24 03:02:50;;;;;;;24.70;11.90;;;;;;;3.05;100.00;99117.22;7400355;19;20396;-48
2021/12/24 03:05:22;;;;;;;25.50;12.83;;;;;;;3.07;100.00;99110.50;7394170;19;20760;-52
2021/12/24 03:07:55;;;;;;;23.17;12.07;;;;;;;3.05;100.00;99107.03;7399350;19;20930;-51
2021/12/24 03:10:25;;;;;;;26.47;12.27;;;;;;;3.05;100.00;99112.13;7391994;19;20814;-50
2021/12/24 03:12:56;;;;;;;21.00;10.63;;;;;;;3.01;100.00;99106.78;7399971;19;20408;-46
2021/12/24 03:15:29;;;;;;;25.87;12.33;;;;;;;3.09;100.00;99111.44;7392945;19;20768;-49
2021/12/24 03:18:00;;;;;;;22.90;12.23;;;;;;;3.10;100.00;99115.75;7398957;19;20419;-47
2021/12/24 03:20:33;;;;;;;27.63;12.23;;;;;;;3.12;100.00;99118.34;7392757;19;20873;-51
2021/12/24 03:23:11;;;;;;;21.97;11.10;;;;;;;3.08;100.00;99111.41;7399653;19;20395;-50
2021/12/24 03:25:41;;;;;;;19.53;10.80;;;;;;;3.14;100.00;99106.56;7392616;19;20422;-51
2021/12/24 03:28:10;;;;;;;17.90;9.83;;;;;;;3.16;100.00;99114.28;7398483;19;20925;-51
2021/12/24 03:30:40;;;;;;;23.77;11.43;;;;;;;3.21;100.00;99103.50;7392138;19;20868;-48
2021/12/24 03:33:09;;;;;;;24.70;11.83;;;;;;;3.18;100.00;99099.94;7399145;19;20398;-48
2021/12/24 03:35:39;;;;;;;23.20;11.30;;;;;;;3.19;100.00;99094.03;7391561;19;20426;-48
2021/12/24 03:38:11;;;;;;;19.27;11.10;;;;;;;3.15;100.00;99092.13;7398118;19;20479;-49
2021/12/24 03:40:40;;;;;;;27.13;13.07;;;;;;;3.25;100.00;99089.22;7392320;19;20399;-50
2021/12/24 03:43:10;;;;;;;18.00;10.53;;;;;;;3.20;100.00;99086.47;7399093;19;20451;-50
2021/12/24 03:45:45;;;;;;;22.43;11.30;;;;;;;3.23;100.00;99090.81;7391727;19;20411;-48
2021/12/24 03:48:21;;;;;;;19.43;10.77;;;;;;;3.27;100.00;99079.94;7397914;19;20419;-51
2021/12/24 03:50:59;;;;;;;23.53;11.80;;;;;;;3.28;100.00;99078.28;7390990;19;20419;-54
2021/12/24 03:56:15;;;;;;;23.17;11.77;;;;;;;3.37;100.00;99074.44;7391438;19;20476;-50
2021/12/24 03:58:44;;;;;;;22.10;11.10;;;;;;;3.31;100.00;99084.38;7397195;19;20408;-53
2021/12/24 04:01:14;;;;;;;24.90;12.37;;;;;;;3.39;100.00;99097.47;7391791;19;20658;-50
2021/12/24 04:03:44;;;;;;;21.93;11.80;;;;;;;3.40;100.00;99089.00;7398881;19;20399;-48
2021/12/24 04:06:13;;;;;;;20.33;11.13;;;;;;;3.42;100.00;99087.41;7391262;19;20415;-49
2021/12/24 04:08:45;;;;;;;25.07;13.03;;;;;;;3.37;100.00;99101.63;7402722;19;20431;-53
2021/12/24 04:11:15;;;;;;;20.57;11.70;;;;;;;3.37;100.00;99099.94;7397966;19;20419;-49
2021/12/24 04:13:45;;;;;;;22.30;11.60;;;;;;;3.35;100.00;99100.69;7406081;19;20401;-51
2021/12/24 04:16:16;;;;;;;23.67;12.20;;;;;;;3.41;100.00;99108.59;7398369;19;20415;-54
2021/12/24 04:18:53;;;;;;;26.53;12.13;;;;;;;3.44;100.00;99110.41;7403294;19;20448;-50
2021/12/24 04:26:58;;;;;;;32.30;14.60;;;;;;;3.53;100.00;99110.81;7402603;19;20411;-49
2021/12/24 04:29:28;;;;;;;43.17;13.30;;;;;;;3.52;100.00;99114.16;7398512;19;20675;-47
2021/12/24 04:32:09;;;;;;;30.30;14.77;;;;;;;3.57;100.00;99120.34;7405044;19;20402;-51
2021/12/24 04:34:39;;;;;;;33.07;14.77;;;;;;;3.45;100.00;99122.34;7398231;19;20679;-50
2021/12/24 04:51:17;;;;;;;43.47;14.83;;;;;;;3.37;100.00;99128.00;7398086;19;20951;-49
2021/12/24 05:02:08;;;;;;;33.23;15.27;;;;;;;3.37;100.00;99124.56;7403539;19;20482;-49
2021/12/24 05:04:47;;;;;;;33.23;14.23;;;;;;;3.31;100.00;99120.06;7398846;19;20447;-53
2021/12/24 05:07:44;;;;;;;30.70;13.87;;;;;;;3.32;100.00;99126.91;7402592;19;20492;-49
2021/12/24 05:10:16;;;;;;;35.23;15.50;;;;;;;3.29;100.00;99120.81;7395727;19;20507;-51
2021/12/24 05:12:48;;;;;;;39.03;16.30;;;;;;;3.31;100.00;99130.28;7404238;19;20439;-55
2021/12/24 05:15:18;;;;;;;36.87;15.37;;;;;;;3.25;100.00;99140.19;7397639;19;20447;-52
2021/12/24 05:18:04;;;;;;;36.93;14.50;;;;;;;3.21;100.00;99140.84;7402759;19;20421;-50
2021/12/24 05:23:16;;;;;;;30.67;15.47;;;;;;;3.21;100.00;99154.47;7403580;19;20384;-50
2021/12/24 05:25:48;;;;;;;39.47;16.30;;;;;;;3.17;100.00;99154.28;7396231;19;20417;-52
2021/12/24 05:28:20;;;;;;;34.57;14.37;;;;;;;3.16;100.00;99152.50;7401850;19;20415;-52
2021/12/24 05:30:50;;;;;;;35.30;16.27;;;;;;;3.20;100.00;99151.84;7395210;19;20507;-55
2021/12/24 05:33:22;;;;;;;35.17;16.27;;;;;;;3.17;100.00;99159.38;7403307;19;20824;-51
2021/12/24 05:35:52;;;;;;;34.83;15.37;;;;;;;3.08;100.00;99162.38;7395042;19;20426;-53
2021/12/24 05:38:21;;;;;;;29.07;13.43;;;;;;;3.02;100.00;99157.84;7401472;19;20478;-54
2021/12/24 05:40:51;;;;;;;29.10;12.70;;;;;;;3.00;100.00;99154.34;7396402;19;20771;-52
2021/12/24 05:43:23;;;;;;;27.83;11.83;;;;;;;2.90;100.00;99170.00;7402972;19;20392;-52
2021/12/24 05:45:52;;;;;;;24.90;11.13;;;;;;;2.76;100.00;99160.03;7395998;19;20412;-55
2021/12/24 05:48:22;;;;;;;16.40;7.43;;;;;;;2.73;100.00;99157.38;7401217;19;20419;-49
2021/12/24 05:50:52;;;;;;;16.90;8.00;;;;;;;2.56;100.00;99152.31;7394740;19;20436;-53
2021/12/24 05:53:22;;;;;;;11.30;6.67;;;;;;;2.37;100.00;99152.22;7402628;19;20459;-50
2021/12/24 05:55:52;;;;;;;8.90;5.23;;;;;;;2.15;100.00;99158.78;7395320;19;20412;-51
2021/12/24 05:58:24;;;;;;;9.77;5.50;;;;;;;2.15;100.00;99174.06;7400863;19;20466;-50
2021/12/24 06:00:54;;;;;;;10.27;5.50;;;;;;;2.08;100.00;99180.53;7396264;19;20489;-48
2021/12/24 06:03:24;;;;;;;9.70;5.10;;;;;;;1.98;100.00;99178.31;7402163;19;20392;-47
2021/12/24 06:05:53;;;;;;;8.75;5.15;;;;;;;1.89;100.00;99186.34;7394670;19;20481;-53
2021/12/24 06:08:23;;;;;;;12.23;5.97;;;;;;;1.70;100.00;99180.28;7400453;19;20568;-50
2021/12/24 06:10:52;;;;;;;12.73;5.97;;;;;;;1.50;100.00;99176.72;7393676;19;20523;-51
2021/12/24 06:13:27;;;;;;;9.60;6.35;;;;;;;1.41;100.00;99181.31;7401961;19;20442;-47
2021/12/24 06:15:57;;;;;;;13.20;6.25;;;;;;;1.41;100.00;99172.03;7394908;19;20237;-52
2021/12/24 06:18:28;;;;;;;11.25;6.20;;;;;;;1.32;100.00;99172.41;7400341;19;20176;-51
2021/12/24 06:21:03;;;;;;;13.00;5.90;;;;;;;1.18;100.00;99169.13;7395078;19;20253;-52
2021/12/24 06:23:34;;;;;;;12.45;5.70;;;;;;;1.11;100.00;99172.13;7401754;19;20127;-46
2021/12/24 06:26:04;;;;;;;10.13;5.80;;;;;;;1.10;100.00;99170.38;7394196;19;20245;-48
2021/12/24 06:28:39;;;;;;;14.43;6.63;;;;;;;1.10;100.00;99180.56;7400100;19;20484;-50
2021/12/24 06:31:10;;;;;;;13.65;7.43;;;;;;;1.10;100.00;99172.03;7393578;19;20193;-52
2021/12/24 06:33:39;;;;;;;15.00;7.03;;;;;;;1.01;100.00;99187.66;7401315;19;20123;-47
2021/12/24 06:36:09;;;;;;;12.10;7.05;;;;;;;1.01;100.00;99186.00;7393962;19;20250;-47
2021/12/24 06:38:38;;;;;;;11.88;7.13;;;;;;;0.97;100.00;99183.22;7399705;19;20440;-50
2021/12/24 06:41:09;;;;;;;15.18;7.05;;;;;;;0.92;100.00;99175.34;7393696;19;20238;-52
2021/12/24 06:43:41;;;;;;;16.50;8.80;;;;;;;0.98;100.00;99169.72;7401306;19;20167;-52
2021/12/24 06:46:13;;;;;;;10.98;6.65;;;;;;;0.89;100.00;99188.75;7393875;19;20251;-49
2021/12/24 06:48:45;;;;;;;13.85;8.07;;;;;;;0.93;100.00;99197.41;7399242;19;20175;-52
2021/12/24 06:51:14;;;;;;;10.13;6.22;;;;;;;0.96;100.00;99196.72;7393828;19;20462;-55
2021/12/24 06:53:44;;;;;;;17.35;8.15;;;;;;;0.88;100.00;99186.13;7400611;19;20122;-48
2021/12/24 06:56:13;;;;;;;26.65;11.40;;;;;;;0.86;100.00;99175.88;7393206;19;20629;-53
2021/12/24 06:58:45;;;;;;;18.08;7.93;;;;;;;0.86;100.00;99172.47;7399029;19;20165;-53
2021/12/24 07:01:15;;;;;;;14.55;7.45;;;;;;;0.83;100.00;99184.97;7393915;19;20234;-50
2021/12/24 07:03:45;;;;;;;20.13;8.57;;;;;;;0.90;100.00;99192.16;7400307;19;20127;-49
2021/12/24 07:06:14;;;;;;;13.50;6.88;;;;;;;0.88;100.00;99184.44;7392874;19;20182;-50
2021/12/24 07:08:44;;;;;;;12.55;6.80;;;;;;;0.88;100.00;99183.56;7398088;19;20673;-51
2021/12/24 07:11:13;;;;;;;16.98;8.27;;;;;;;0.87;100.00;99187.78;7393925;19;20187;-51
2021/12/24 07:13:46;;;;;;;13.20;7.45;;;;;;;0.80;100.00;99181.50;7400085;19;20125;-50
2021/12/24 07:16:15;;;;;;;13.87;6.87;;;;;;;0.73;100.00;99199.72;7392357;19;20467;-51
2021/12/24 07:18:45;;;;;;;15.45;6.95;;;;;;;0.74;100.00;99205.66;7398292;19;20873;-50
2021/12/24 07:21:14;;;;;;;12.77;6.53;;;;;;;0.75;100.00;99212.47;7392655;19;20187;-50
2021/12/24 07:23:44;;;;;;;17.08;7.63;;;;;;;0.74;100.00;99215.81;7399138;19;20122;-52
2021/12/24 07:26:13;;;;;;;11.43;6.95;;;;;;;0.70;100.00;99224.03;7392423;19;20188;-50
2021/12/24 07:28:46;;;;;;;11.85;6.70;;;;;;;0.62;100.00;99227.00;7397373;19;20237;-55
2021/12/24 07:31:16;;;;;;;14.45;6.78;;;;;;;0.66;100.00;99222.97;7395748;19;20508;-47
2021/12/24 07:33:46;;;;;;;12.65;6.50;;;;;;;0.64;100.00;99230.53;7404019;19;20135;-48
2021/12/24 07:36:15;;;;;;;12.85;6.30;;;;;;;0.67;100.00;99227.31;7392964;19;20266;-52
2021/12/24 07:38:45;;;;;;;19.42;10.40;;;;;;;0.63;100.00;99228.78;7397549;19;20597;-50
2021/12/24 07:41:15;;;;;;;17.40;7.10;;;;;;;0.58;100.00;99235.25;7389912;19;20182;-47
2021/12/24 07:43:47;;;;;;;15.98;7.57;;;;;;;0.62;100.00;99232.09;7398646;19;20130;-49
2021/12/24 07:46:22;;;;;;;11.98;6.63;;;;;;;0.82;100.00;99227.25;7393119;19;20266;-49
2021/12/24 07:49:01;;;;;;;14.40;6.43;;;;;;;0.83;100.00;99226.50;7398887;19;20155;-46
2021/12/24 07:54:13;;;;;;;10.20;6.72;;;;;;;0.71;100.00;99230.88;7402323;19;20134;-48
2021/12/24 07:56:47;;;;;;;20.52;7.55;;;;;;;0.56;100.00;99241.91;7398350;19;20522;-50
2021/12/24 07:59:19;;;;;;;16.80;7.40;;;;;;;0.71;100.00;99241.03;7395661;19;20162;-53
2021/12/24 08:01:49;;;;;;;11.68;7.32;;;;;;;0.65;100.00;99236.47;7397939;19;20178;-48
2021/12/24 08:04:19;;;;;;;25.45;13.63;;;;;;;0.73;100.00;99242.00;7397651;19;20136;-55
2021/12/24 08:06:48;;;;;;;22.25;12.32;;;;;;;0.76;100.00;99239.63;7398913;19;20211;-47
2021/12/24 08:09:18;;;;;;;14.30;7.80;;;;;;;0.71;100.00;99238.50;7397204;19;20123;-47
2021/12/24 08:11:48;;;;;;;14.48;8.10;;;;;;;0.65;100.00;99231.41;7397330;19;20475;-50
2021/12/24 08:14:20;;;;;;;17.58;9.48;;;;;;;0.64;100.00;99230.53;7402551;19;20127;-47
2021/12/24 08:16:50;;;;;;;13.85;7.78;;;;;;;0.50;100.00;99239.00;7397724;19;20205;-52
2021/12/24 08:19:19;;;;;;;16.05;7.80;;;;;;;0.47;100.00;99243.91;7396993;19;20182;-51
2021/12/24 08:21:49;;;;;;;24.02;10.95;;;;;;;0.85;100.00;99241.81;7397813;19;20120;-50
2021/12/24 08:24:18;;;;;;;21.63;11.10;;;;;;;0.71;100.00;99236.81;7402470;19;20131;-48
2021/12/24 08:26:48;;;;;;;12.15;7.50;;;;;;;0.61;100.00;99248.13;7396856;19;20137;-53
2021/12/24 08:29:21;;;;;;;12.77;6.60;;;;;;;0.66;100.00;99251.81;7397803;19;20134;-49
2021/12/24 08:31:51;;;;;;;14.55;7.65;;;;;;;0.57;100.00;99238.59;7395846;19;20131;-52
2021/12/24 08:34:22;;;;;;;14.05;8.43;;;;;;;0.55;100.00;99242.69;7399908;19;20529;-49
2021/12/24 08:36:54;;;;;;;14.20;8.23;;;;;;;0.48;100.00;99244.00;7383189;19;20525;-49
2021/12/24 08:39:23;;;;;;;12.65;7.10;;;;;;;0.47;100.00;99246.47;7397475;19;20123;-54
2021/12/24 08:41:56;;;;;;;17.48;9.18;;;;;;;0.40;100.00;99240.13;7393338;19;20186;-47
2021/12/24 08:44:32;;;;;;;13.70;7.88;;;;;;;0.44;100.00;99246.25;7393045;19;20188;-49
2021/12/24 08:47:04;;;;;;;17.58;8.27;;;;;;;0.48;100.00;99240.59;7394380;19;20249;-48
2021/12/24 08:49:34;;;;;;;13.23;8.18;;;;;;;0.43;100.00;99254.66;7397134;19;20123;-50
2021/12/24 08:52:04;;;;;;;19.77;10.52;;;;;;;0.43;100.00;99253.03;7392174;19;20457;-51
2021/12/24 08:54:33;;;;;;;26.27;13.27;;;;;;;0.44;100.00;99244.63;7400588;19;20126;-47
2021/12/24 08:57:03;;;;;;;12.90;7.47;;;;;;;0.43;100.00;99231.81;7398404;19;20190;-47
2021/12/24 08:59:35;;;;;;;19.00;9.15;;;;;;;0.43;100.00;99226.75;7404591;19;20145;-51
2021/12/24 09:02:05;;;;;;;14.10;8.15;;;;;;;0.33;100.00;99248.19;7399435;19;20186;-50
2021/12/24 09:04:36;;;;;;;15.75;8.90;;;;;;;0.20;100.00;99254.22;7404350;19;20179;-48
2021/12/24 09:07:06;;;;;;;16.00;9.50;;;;;;;0.25;100.00;99250.25;7399992;19;20205;-49
2021/12/24 09:09:36;;;;;;;14.65;8.40;;;;;;;0.28;100.00;99245.38;7406564;19;20138;-47
2021/12/24 09:12:08;;;;;;;15.88;8.85;;;;;;;0.34;100.00;99260.97;7399376;19;20190;-46
2021/12/24 09:14:40;;;;;;;16.65;9.45;;;;;;;0.31;100.00;99265.00;7404040;19;20136;-51
2021/12/24 09:17:10;;;;;;;16.83;8.10;;;;;;;0.24;100.00;99284.94;7398179;19;20458;-46
2021/12/24 09:19:45;;;;;;;17.60;9.00;;;;;;;0.24;100.00;99289.09;7403325;19;20440;-53
2021/12/24 09:22:17;;;;;;;14.80;8.35;;;;;;;0.24;100.00;99286.56;7400156;19;20190;-47
2021/12/24 09:24:49;;;;;;;15.82;8.80;;;;;;;0.26;100.00;99292.63;7403540;19;20115;-46
2021/12/24 09:27:19;;;;;;;16.95;8.70;;;;;;;0.23;100.00;99292.44;7397662;19;20445;-51
2021/12/24 09:29:54;;;;;;;16.42;9.10;;;;;;;0.10;100.00;99290.84;7403181;19;20174;-48
2021/12/24 09:32:25;;;;;;;21.33;11.20;;;;;;;0.10;100.00;99296.78;7394099;19;20196;-49
2021/12/24 09:34:55;;;;;;;20.20;9.85;;;;;;;0.06;100.00;99297.38;7403308;19;20123;-46
2021/12/24 09:37:24;;;;;;;19.00;8.95;;;;;;;0.00;100.00;99302.09;7401169;19;20258;-51
2021/12/24 09:39:54;;;;;;;17.00;8.70;;;;;;;-0.09;100.00;99316.72;7402850;19;20127;-51
2021/12/24 09:42:27;;;;;;;16.30;8.52;;;;;;;-0.13;100.00;99323.28;7398469;19;20447;-50
2021/12/24 09:44:59;;;;;;;14.98;8.57;;;;;;;-0.10;100.00;99327.66;7403037;19;20531;-51
2021/12/24 09:47:28;;;;;;;24.58;10.98;;;;;;;0.01;100.00;99333.38;7394538;19;20585;-53
2021/12/24 09:49:58;;;;;;;13.63;7.68;;;;;;;-0.02;100.00;99336.59;7402469;19;20127;-55
2021/12/24 09:52:29;;;;;;;13.10;7.95;;;;;;;-0.16;100.00;99344.25;7395405;19;20196;-52
2021/12/24 09:54:58;;;;;;;15.77;8.55;;;;;;;-0.06;100.00;99344.84;7402567;19;20207;-55
2021/12/24 09:57:28;;;;;;;12.55;7.88;;;;;;;0.10;100.00;99333.97;7397605;19;20190;-54
2021/12/24 10:00:00;;;;;;;13.68;7.32;;;;;;;0.17;100.00;99330.13;7402201;19;20174;-52
2021/12/24 10:02:40;;;;;;;15.27;7.97;;;;;;;-0.07;100.00;99327.84;7396452;19;20234;-52
2021/12/24 10:05:30;;;;;;;10.90;7.00;;;;;;;-0.14;100.00;99330.00;7401872;19;20123;-49
2021/12/24 10:08:07;;;;;;;19.70;9.55;;;;;;;0.09;100.00;99314.44;7400295;19;20190;-49
2021/12/24 10:10:40;;;;;;;10.82;6.43;;;;;;;0.26;100.00;99316.31;7397720;19;20206;-51
2021/12/24 10:13:28;;;;;;;15.70;7.65;;;;;;;0.04;100.00;99326.84;7401130;19;20622;-49
2021/12/24 10:16:03;;;;;;;10.82;7.07;;;;;;;-0.09;100.00;99331.94;7396419;19;20249;-50
2021/12/24 10:18:35;;;;;;;14.10;8.05;;;;;;;-0.25;100.00;99331.03;7400239;19;20437;-51
2021/12/24 10:21:08;;;;;;;12.30;7.75;;;;;;;-0.26;100.00;99331.78;7397939;19;20183;-53
2021/12/24 10:23:50;;;;;;;12.50;7.78;;;;;;;-0.33;100.00;99330.53;7401635;19;20123;-51
2021/12/24 10:26:26;;;;;;;129.45;52.08;;;;;;;-0.17;100.00;99337.44;7396389;19;20181;-50
2021/12/24 10:29:02;;;;;;;15.57;8.90;;;;;;;-0.26;100.00;99341.91;7401486;19;20127;-50
2021/12/24 10:31:37;;;;;;;90.68;38.30;;;;;;;-0.04;100.00;99349.19;7395965;19;20245;-50
2021/12/24 10:34:23;;;;;;;14.90;8.55;;;;;;;-0.15;100.00;99343.47;7399601;19;20119;-49
2021/12/24 10:37:07;;;;;;;14.27;8.98;;;;;;;-0.08;100.00;99334.59;7398614;19;20253;-50
2021/12/24 10:39:40;;;;;;;15.13;8.35;;;;;;;-0.17;100.00;99331.47;7401042;19;20171;-50
2021/12/24 10:42:15;;;;;;;17.10;8.55;;;;;;;-0.23;100.00;99331.97;7396439;19;20250;-48
2021/12/24 10:44:46;;;;;;;122.60;54.50;;;;;;;-0.13;100.00;99338.50;7401127;19;20154;-53
2021/12/24 10:47:22;;;;;;;19.88;10.15;;;;;;;-0.18;100.00;99337.31;7396144;19;20251;-53
2021/12/24 10:50:05;;;;;;;17.13;9.30;;;;;;;-0.32;100.00;99339.88;7400661;19;20115;-52
2021/12/24 10:55:27;;;;;;;16.35;8.82;;;;;;;-0.32;100.00;99336.47;7393992;19;20133;-48
2021/12/24 10:57:59;;;;;;;25.65;13.15;;;;;;;-0.32;100.00;99339.00;7398746;19;20184;-50
2021/12/24 11:00:31;;;;;;;18.45;9.70;;;;;;;-0.46;100.00;99348.28;7396493;19;20126;-49
2021/12/24 11:03:05;;;;;;;17.23;9.02;;;;;;;-0.46;100.00;99358.44;7400108;19;20122;-54
2021/12/24 11:05:41;;;;;;;18.50;9.40;;;;;;;-0.48;100.00;99370.09;7395797;19;20178;-47
2021/12/24 11:08:13;;;;;;;22.00;10.13;;;;;;;-0.48;100.00;99381.13;7398903;19;20423;-51
2021/12/24 11:10:44;;;;;;;20.80;11.68;;;;;;;-0.36;100.00;99380.16;7395656;19;20457;-49
2021/12/24 11:13:17;;;;;;;21.08;10.30;;;;;;;-0.36;100.00;99382.69;7400311;19;20392;-50
2021/12/24 11:15:49;;;;;;;20.63;10.38;;;;;;;-0.44;100.00;99383.09;7394467;19;20182;-53
2021/12/24 11:18:24;;;;;;;20.75;10.95;;;;;;;-0.41;100.00;99384.94;7396949;19;20158;-49
2021/12/24 11:20:58;;;;;;;29.20;11.90;;;;;;;-0.43;100.00;99384.84;7393432;19;20207;-49
2021/12/24 11:23:29;;;;;;;22.25;11.30;;;;;;;-0.45;100.00;99383.84;7399795;19;20123;-47
2021/12/24 11:26:03;;;;;;;23.25;11.27;;;;;;;-0.38;100.00;99387.66;7394711;19;20269;-50
2021/12/24 11:28:33;;;;;;;26.35;12.10;;;;;;;-0.32;100.00;99395.66;7398033;19;20420;-48
2021/12/24 11:31:06;;;;;;;23.05;11.90;;;;;;;-0.40;100.00;99399.38;7394917;19;20186;-47
2021/12/24 11:33:44;;;;;;;22.40;11.95;;;;;;;-0.33;100.00;99395.53;7398784;19;20126;-47
2021/12/24 11:36:17;;;;;;;21.33;10.73;;;;;;;-0.37;100.00;99393.63;7395792;19;20202;-47
2021/12/24 11:38:48;;;;;;;23.67;12.10;;;;;;;-0.37;100.00;99403.75;7397778;19;20155;-52
2021/12/24 11:41:19;;;;;;;22.15;11.40;;;;;;;-0.34;100.00;99403.94;7394684;19;20463;-49
2021/12/24 11:43:50;;;;;;;24.90;12.20;;;;;;;-0.32;100.00;99412.50;7399032;19;20133;-50
2021/12/24 11:46:24;;;;;;;22.92;11.45;;;;;;;-0.37;100.00;99416.44;7392631;19;20205;-47
2021/12/24 11:48:57;;;;;;;28.17;12.50;;;;;;;-0.34;100.00;99414.97;7397104;19;20162;-48
2021/12/24 11:51:33;;;;;;;22.55;12.05;;;;;;;-0.27;100.00;99431.44;7394472;19;20186;-52
2021/12/24 11:54:06;;;;;;;20.42;11.23;;;;;;;-0.30;100.00;99426.19;7397521;19;20131;-49
2021/12/24 11:56:42;;;;;;;23.67;12.10;;;;;;;-0.34;100.00;99431.81;7393645;19;20182;-49
2021/12/24 11:59:12;;;;;;;26.77;13.23;;;;;;;-0.28;100.00;99427.16;7399465;19;20521;-48
2021/12/24 12:01:45;;;;;;;24.95;12.45;;;;;;;-0.32;100.00;99426.06;7392618;19;20187;-50
2021/12/24 12:04:19;;;;;;;31.98;14.43;;;;;;;-0.30;100.00;99428.72;7403095;19;20382;-50
2021/12/24 12:06:54;;;;;;;25.45;13.07;;;;;;;-0.27;100.00;99431.44;7390905;19;20257;-52
2021/12/24 12:09:24;;;;;;;24.83;13.85;;;;;;;-0.28;100.00;99444.88;7398154;19;20129;-57
2021/12/24 12:12:02;;;;;;;28.75;14.30;;;;;;;-0.27;100.00;99439.03;7394325;19;20588;-48
2021/12/24 12:14:33;;;;;;;30.23;14.85;;;;;;;-0.24;100.00;99451.91;7397092;19;20130;-49
2021/12/24 12:17:06;;;;;;;30.77;14.57;;;;;;;-0.20;100.00;99450.47;7393908;19;20197;-49
2021/12/24 12:19:46;;;;;;;26.77;14.52;;;;;;;-0.18;100.00;99447.25;7398479;19;20126;-49
2021/12/24 12:22:28;;;;;;;24.90;13.75;;;;;;;-0.22;100.00;99452.88;7396800;19;20213;-52
2021/12/24 12:25:01;;;;;;;27.65;14.23;;;;;;;-0.24;100.00;99457.00;7397949;19;20130;-50
2021/12/24 12:27:42;;;;;;;27.30;14.85;;;;;;;-0.22;100.00;99457.97;7395149;19;20198;-49
2021/12/24 12:30:25;;;;;;;25.58;13.35;;;;;;;-0.23;100.00;99453.69;7407556;19;20397;-51
2021/12/24 12:33:05;;;;;;;31.67;14.95;;;;;;;-0.18;100.00;99467.53;7408291;19;20182;-48
2021/12/24 12:35:40;;;;;;;29.85;15.52;;;;;;;-0.18;100.00;99469.16;7397707;19;20119;-47
2021/12/24 12:38:26;;;;;;;29.50;14.43;;;;;;;-0.15;100.00;99477.84;7403590;19;20168;-48
2021/12/24 12:40:56;;;;;;;28.70;15.40;;;;;;;-0.17;100.00;99479.41;7398759;19;20196;-50
2021/12/24 12:43:26;;;;;;;28.27;14.85;;;;;;;-0.19;100.00;99483.53;7404947;19;20123;-49
2021/12/24 12:46:03;;;;;;;27.83;13.98;;;;;;;-0.19;100.00;99490.25;7400195;19;20242;-53
2021/12/24 12:48:50;;;;;;;25.27;14.23;;;;;;;-0.26;100.00;99491.50;7402546;19;20450;-49
2021/12/24 12:51:25;;;;;;;31.73;15.57;;;;;;;-0.22;100.00;99506.13;7399603;19;20186;-48
2021/12/24 12:54:00;;;;;;;32.95;16.42;;;;;;;-0.19;100.00;99498.75;7403406;19;20126;-49
2021/12/24 12:56:30;;;;;;;30.90;15.65;;;;;;;-0.25;100.00;99498.34;7400078;19;20238;-48
2021/12/24 12:59:01;;;;;;;32.10;14.75;;;;;;;-0.33;100.00;99507.09;7404181;19;20182;-44
2021/12/24 13:01:31;;;;;;;29.10;14.55;;;;;;;-0.29;100.00;99503.97;7400500;19;20192;-45